< < Back
Terminal Aerodrome Forecast


Current Version              Previous Versions:   1  2  3  4  5  6  7  8  9  

Terminal Aerodrome Forecast

891
FTUS42 KILM 251122
TAFILM
TAF
KILM 251122Z 2512/2612 24006KT P6SM SCT025 SCT060
     FM251700 16006KT P6SM VCSH SCT030 BKN060
     FM252000 18010KT P6SM SCT035 SCT250
     FM260000 22003KT P6SM SCT250=

Latest METAR

622
SAUS70 KWBC 261200 RRL
MTRILM
METAR KILM 261153Z 25010KT 10SM CLR 27/23 A3006 RMK AO2 SLP178 T02670228
10267 20250 53012 PWINO


USA.gov is the U.S. government's official web portal to all federal, state and local government web resources and services.